sensor_id;sensor_type;location;lat;lon;timestamp;pressure;altitude;pressure_sealevel;temperature;humidity
55916;BME280;41826;53.246;-6.670;2023-04-20T00:01:53;100122.31;;;8.64;100.00
55916;BME280;41826;53.246;-6.670;2023-04-20T00:04:21;100129.53;;;8.43;100.00
55916;BME280;41826;53.246;-6.670;2023-04-20T00:06:46;100146.09;;;8.34;100.00
55916;BME280;41826;53.246;-6.670;2023-04-20T00:09:12;100133.38;;;8.58;100.00
55916;BME280;41826;53.246;-6.670;2023-04-20T00:11:39;100137.53;;;8.51;100.00
55916;BME280;41826;53.246;-6.670;2023-04-20T00:14:05;100128.72;;;8.42;100.00
55916;BME280;41826;53.246;-6.670;2023-04-20T00:16:31;100133.28;;;8.40;100.00
55916;BME280;41826;53.246;-6.670;2023-04-20T00:18:58;100141.97;;;8.41;100.00
55916;BME280;41826;53.246;-6.670;2023-04-20T00:21:24;100134.25;;;8.39;100.00
55916;BME280;41826;53.246;-6.670;2023-04-20T00:23:50;100142.78;;;8.32;100.00
55916;BME280;41826;53.246;-6.670;2023-04-20T00:26:16;100140.28;;;8.30;100.00
55916;BME280;41826;53.246;-6.670;2023-04-20T00:28:41;100129.72;;;8.32;100.00
55916;BME280;41826;53.246;-6.670;2023-04-20T00:31:07;100129.56;;;8.33;100.00
55916;BME280;41826;53.246;-6.670;2023-04-20T00:33:33;100136.16;;;8.47;100.00
55916;BME280;41826;53.246;-6.670;2023-04-20T00:35:58;100108.97;;;8.58;100.00
55916;BME280;41826;53.246;-6.670;2023-04-20T00:38:23;100110.03;;;8.28;100.00
55916;BME280;41826;53.246;-6.670;2023-04-20T00:40:49;100106.84;;;8.34;100.00
55916;BME280;41826;53.246;-6.670;2023-04-20T00:43:18;100112.22;;;8.32;100.00
55916;BME280;41826;53.246;-6.670;2023-04-20T00:45:47;100111.69;;;8.29;100.00
55916;BME280;41826;53.246;-6.670;2023-04-20T00:48:13;100103.16;;;8.27;100.00
55916;BME280;41826;53.246;-6.670;2023-04-20T00:50:44;100106.47;;;8.29;100.00
55916;BME280;41826;53.246;-6.670;2023-04-20T00:53:10;100105.69;;;8.09;100.00
55916;BME280;41826;53.246;-6.670;2023-04-20T00:55:36;100137.38;;;7.76;100.00
55916;BME280;41826;53.246;-6.670;2023-04-20T00:58:02;100149.75;;;7.74;100.00
55916;BME280;41826;53.246;-6.670;2023-04-20T01:00:28;100175.34;;;7.61;100.00
55916;BME280;41826;53.246;-6.670;2023-04-20T01:02:53;100175.47;;;7.69;100.00
55916;BME280;41826;53.246;-6.670;2023-04-20T01:05:19;100192.41;;;7.55;100.00
55916;BME280;41826;53.246;-6.670;2023-04-20T01:07:45;100169.41;;;7.59;100.00
55916;BME280;41826;53.246;-6.670;2023-04-20T01:10:11;100168.59;;;7.49;100.00
55916;BME280;41826;53.246;-6.670;2023-04-20T01:12:36;100173.97;;;7.76;100.00
55916;BME280;41826;53.246;-6.670;2023-04-20T01:15:03;100153.34;;;7.73;100.00
55916;BME280;41826;53.246;-6.670;2023-04-20T01:17:33;100133.81;;;7.77;100.00
55916;BME280;41826;53.246;-6.670;2023-04-20T01:19:59;100147.56;;;7.41;100.00
55916;BME280;41826;53.246;-6.670;2023-04-20T01:22:25;100182.22;;;7.52;100.00
55916;BME280;41826;53.246;-6.670;2023-04-20T01:24:51;100165.19;;;7.77;100.00
55916;BME280;41826;53.246;-6.670;2023-04-20T01:27:17;100173.69;;;7.50;100.00
55916;BME280;41826;53.246;-6.670;2023-04-20T01:29:43;100186.31;;;7.35;100.00
55916;BME280;41826;53.246;-6.670;2023-04-20T01:32:09;100135.88;;;7.25;100.00
55916;BME280;41826;53.246;-6.670;2023-04-20T01:34:35;100074.44;;;7.41;100.00
55916;BME280;41826;53.246;-6.670;2023-04-20T01:37:01;100004.94;;;7.40;100.00
55916;BME280;41826;53.246;-6.670;2023-04-20T01:39:27;100048.34;;;7.21;100.00
55916;BME280;41826;53.246;-6.670;2023-04-20T01:41:55;100112.66;;;7.12;100.00
55916;BME280;41826;53.246;-6.670;2023-04-20T01:44:20;100190.78;;;7.14;100.00
55916;BME280;41826;53.246;-6.670;2023-04-20T01:46:46;100244.41;;;7.18;100.00
55916;BME280;41826;53.246;-6.670;2023-04-20T01:49:11;100304.66;;;7.05;100.00
55916;BME280;41826;53.246;-6.670;2023-04-20T01:51:36;100377.94;;;6.92;100.00
55916;BME280;41826;53.246;-6.670;2023-04-20T01:54:02;100466.53;;;6.94;100.00
55916;BME280;41826;53.246;-6.670;2023-04-20T01:56:27;100527.50;;;6.93;100.00
55916;BME280;41826;53.246;-6.670;2023-04-20T01:58:53;100587.06;;;6.88;100.00
55916;BME280;41826;53.246;-6.670;2023-04-20T02:01:19;100618.44;;;7.09;100.00
55916;BME280;41826;53.246;-6.670;2023-04-20T02:03:44;100650.22;;;7.14;100.00
55916;BME280;41826;53.246;-6.670;2023-04-20T02:06:10;100648.09;;;7.08;100.00
55916;BME280;41826;53.246;-6.670;2023-04-20T02:08:35;100664.59;;;7.08;100.00
55916;BME280;41826;53.246;-6.670;2023-04-20T02:11:01;100669.81;;;7.08;100.00
55916;BME280;41826;53.246;-6.670;2023-04-20T02:13:27;100682.88;;;7.20;100.00
55916;BME280;41826;53.246;-6.670;2023-04-20T02:15:52;100672.06;;;7.13;100.00
55916;BME280;41826;53.246;-6.670;2023-04-20T02:18:18;100667.00;;;7.00;100.00
55916;BME280;41826;53.246;-6.670;2023-04-20T02:20:44;100666.28;;;7.09;100.00
55916;BME280;41826;53.246;-6.670;2023-04-20T02:23:10;100626.31;;;6.98;100.00
55916;BME280;41826;53.246;-6.670;2023-04-20T02:25:35;100637.91;;;7.05;100.00
55916;BME280;41826;53.246;-6.670;2023-04-20T02:28:01;100629.13;;;7.06;100.00
55916;BME280;41826;53.246;-6.670;2023-04-20T02:30:26;100641.25;;;7.07;100.00
55916;BME280;41826;53.246;-6.670;2023-04-20T02:32:52;100629.63;;;7.00;100.00
55916;BME280;41826;53.246;-6.670;2023-04-20T02:35:18;100642.78;;;6.98;100.00
55916;BME280;41826;53.246;-6.670;2023-04-20T02:37:44;100647.19;;;6.98;100.00
55916;BME280;41826;53.246;-6.670;2023-04-20T02:40:10;100639.56;;;7.06;100.00
55916;BME280;41826;53.246;-6.670;2023-04-20T02:42:35;100619.78;;;6.81;100.00
55916;BME280;41826;53.246;-6.670;2023-04-20T02:45:01;100646.69;;;7.04;100.00
55916;BME280;41826;53.246;-6.670;2023-04-20T02:47:26;100636.31;;;6.81;100.00
55916;BME280;41826;53.246;-6.670;2023-04-20T02:49:52;100656.94;;;6.84;100.00
55916;BME280;41826;53.246;-6.670;2023-04-20T02:52:17;100645.81;;;6.71;100.00
55916;BME280;41826;53.246;-6.670;2023-04-20T02:54:43;100720.19;;;6.30;100.00
55916;BME280;41826;53.246;-6.670;2023-04-20T02:57:08;100819.88;;;6.34;100.00
55916;BME280;41826;53.246;-6.670;2023-04-20T02:59:35;100875.72;;;6.42;100.00
55916;BME280;41826;53.246;-6.670;2023-04-20T03:02:01;100927.31;;;6.50;100.00
55916;BME280;41826;53.246;-6.670;2023-04-20T03:04:26;100906.44;;;6.74;100.00
55916;BME280;41826;53.246;-6.670;2023-04-20T03:06:52;100855.44;;;6.70;100.00
55916;BME280;41826;53.246;-6.670;2023-04-20T03:09:17;100912.19;;;6.31;100.00
55916;BME280;41826;53.246;-6.670;2023-04-20T03:11:44;100954.97;;;6.53;100.00
55916;BME280;41826;53.246;-6.670;2023-04-20T03:14:09;100936.66;;;6.41;100.00
55916;BME280;41826;53.246;-6.670;2023-04-20T03:16:34;100944.53;;;6.53;100.00
55916;BME280;41826;53.246;-6.670;2023-04-20T03:19:00;100910.88;;;6.61;100.00
55916;BME280;41826;53.246;-6.670;2023-04-20T03:21:26;100891.63;;;6.50;100.00
55916;BME280;41826;53.246;-6.670;2023-04-20T03:23:51;100861.81;;;6.66;100.00
55916;BME280;41826;53.246;-6.670;2023-04-20T03:26:16;100853.88;;;6.67;100.00
55916;BME280;41826;53.246;-6.670;2023-04-20T03:28:42;100825.03;;;6.46;100.00
55916;BME280;41826;53.246;-6.670;2023-04-20T03:31:08;100804.84;;;6.37;100.00
55916;BME280;41826;53.246;-6.670;2023-04-20T03:33:33;100827.94;;;6.31;100.00
55916;BME280;41826;53.246;-6.670;2023-04-20T03:35:58;100846.38;;;6.27;100.00
55916;BME280;41826;53.246;-6.670;2023-04-20T03:38:24;100890.44;;;6.19;100.00
55916;BME280;41826;53.246;-6.670;2023-04-20T03:40:49;100931.72;;;6.13;100.00
55916;BME280;41826;53.246;-6.670;2023-04-20T03:43:15;101002.56;;;6.06;100.00
55916;BME280;41826;53.246;-6.670;2023-04-20T03:45:40;101125.78;;;6.08;100.00
55916;BME280;41826;53.246;-6.670;2023-04-20T03:48:06;101286.84;;;6.03;100.00
55916;BME280;41826;53.246;-6.670;2023-04-20T03:50:31;101436.38;;;6.15;100.00
55916;BME280;41826;53.246;-6.670;2023-04-20T03:52:56;101555.66;;;6.12;100.00
55916;BME280;41826;53.246;-6.670;2023-04-20T03:55:22;101665.53;;;6.20;100.00
55916;BME280;41826;53.246;-6.670;2023-04-20T03:57:47;101745.88;;;6.13;100.00
55916;BME280;41826;53.246;-6.670;2023-04-20T04:00:13;101809.78;;;6.04;100.00
55916;BME280;41826;53.246;-6.670;2023-04-20T04:02:38;101876.56;;;6.07;100.00
55916;BME280;41826;53.246;-6.670;2023-04-20T04:05:04;101927.63;;;5.95;100.00
55916;BME280;41826;53.246;-6.670;2023-04-20T04:07:30;102000.69;;;5.92;100.00
55916;BME280;41826;53.246;-6.670;2023-04-20T04:09:55;102047.19;;;6.01;100.00
55916;BME280;41826;53.246;-6.670;2023-04-20T04:12:20;102044.34;;;6.06;100.00
55916;BME280;41826;53.246;-6.670;2023-04-20T04:14:46;102065.38;;;6.19;100.00
55916;BME280;41826;53.246;-6.670;2023-04-20T04:17:14;102056.84;;;6.15;100.00
55916;BME280;41826;53.246;-6.670;2023-04-20T04:19:40;102062.59;;;6.06;100.00
55916;BME280;41826;53.246;-6.670;2023-04-20T04:22:07;102088.22;;;5.98;100.00
55916;BME280;41826;53.246;-6.670;2023-04-20T04:24:32;102123.22;;;6.10;100.00
55916;BME280;41826;53.246;-6.670;2023-04-20T04:26:58;102166.84;;;6.06;100.00
55916;BME280;41826;53.246;-6.670;2023-04-20T04:29:23;102199.19;;;6.19;100.00
55916;BME280;41826;53.246;-6.670;2023-04-20T04:31:52;102217.69;;;6.15;100.00
55916;BME280;41826;53.246;-6.670;2023-04-20T04:34:18;102221.66;;;6.22;100.00
55916;BME280;41826;53.246;-6.670;2023-04-20T04:36:44;102237.47;;;6.19;100.00
55916;BME280;41826;53.246;-6.670;2023-04-20T04:39:10;102229.66;;;6.19;100.00
55916;BME280;41826;53.246;-6.670;2023-04-20T04:41:36;102221.06;;;6.17;100.00
55916;BME280;41826;53.246;-6.670;2023-04-20T04:44:01;102221.91;;;6.17;100.00
55916;BME280;41826;53.246;-6.670;2023-04-20T04:46:27;102212.84;;;6.24;100.00
55916;BME280;41826;53.246;-6.670;2023-04-20T04:48:53;102215.22;;;6.29;100.00
55916;BME280;41826;53.246;-6.670;2023-04-20T04:51:18;102198.03;;;6.25;100.00
55916;BME280;41826;53.246;-6.670;2023-04-20T04:53:44;102174.44;;;6.28;100.00
55916;BME280;41826;53.246;-6.670;2023-04-20T04:56:11;102164.47;;;6.19;100.00
55916;BME280;41826;53.246;-6.670;2023-04-20T04:58:37;102126.88;;;6.23;100.00
55916;BME280;41826;53.246;-6.670;2023-04-20T05:01:03;102102.16;;;6.30;100.00
55916;BME280;41826;53.246;-6.670;2023-04-20T05:03:28;102074.41;;;6.29;100.00
55916;BME280;41826;53.246;-6.670;2023-04-20T05:05:54;102042.16;;;6.30;100.00
55916;BME280;41826;53.246;-6.670;2023-04-20T05:08:20;102015.19;;;6.31;100.00
55916;BME280;41826;53.246;-6.670;2023-04-20T05:10:46;101991.88;;;6.28;100.00
55916;BME280;41826;53.246;-6.670;2023-04-20T05:13:11;101955.78;;;6.36;100.00
55916;BME280;41826;53.246;-6.670;2023-04-20T05:15:36;101899.91;;;6.40;100.00
55916;BME280;41826;53.246;-6.670;2023-04-20T05:18:02;101873.16;;;6.37;100.00
55916;BME280;41826;53.246;-6.670;2023-04-20T05:20:27;101857.69;;;6.34;100.00
55916;BME280;41826;53.246;-6.670;2023-04-20T05:22:53;101855.09;;;6.34;100.00
55916;BME280;41826;53.246;-6.670;2023-04-20T05:25:18;101849.88;;;6.34;100.00
55916;BME280;41826;53.246;-6.670;2023-04-20T05:27:44;101874.00;;;6.37;100.00
55916;BME280;41826;53.246;-6.670;2023-04-20T05:30:10;101862.81;;;6.35;100.00
55916;BME280;41826;53.246;-6.670;2023-04-20T05:32:36;101889.50;;;6.24;100.00
55916;BME280;41826;53.246;-6.670;2023-04-20T05:35:01;101897.44;;;6.23;100.00
55916;BME280;41826;53.246;-6.670;2023-04-20T05:37:27;101933.16;;;6.21;100.00
55916;BME280;41826;53.246;-6.670;2023-04-20T05:39:53;101967.56;;;6.12;100.00
55916;BME280;41826;53.246;-6.670;2023-04-20T05:42:18;102012.47;;;6.17;100.00
55916;BME280;41826;53.246;-6.670;2023-04-20T05:44:44;102032.69;;;6.29;100.00
55916;BME280;41826;53.246;-6.670;2023-04-20T05:47:09;102054.72;;;6.39;100.00
55916;BME280;41826;53.246;-6.670;2023-04-20T05:49:35;102037.91;;;6.45;100.00
55916;BME280;41826;53.246;-6.670;2023-04-20T05:52:00;102049.75;;;6.35;100.00
55916;BME280;41826;53.246;-6.670;2023-04-20T05:54:26;102070.13;;;6.60;100.00
55916;BME280;41826;53.246;-6.670;2023-04-20T05:56:55;102040.75;;;6.72;100.00
55916;BME280;41826;53.246;-6.670;2023-04-20T05:59:22;102015.66;;;6.85;100.00
55916;BME280;41826;53.246;-6.670;2023-04-20T06:01:48;101985.09;;;6.87;100.00
55916;BME280;41826;53.246;-6.670;2023-04-20T06:04:14;101967.03;;;6.99;100.00
55916;BME280;41826;53.246;-6.670;2023-04-20T06:06:39;101921.84;;;7.12;100.00
55916;BME280;41826;53.246;-6.670;2023-04-20T06:09:05;101863.72;;;7.09;100.00
55916;BME280;41826;53.246;-6.670;2023-04-20T06:11:32;101837.25;;;7.29;100.00
55916;BME280;41826;53.246;-6.670;2023-04-20T06:13:57;101790.41;;;7.41;100.00
55916;BME280;41826;53.246;-6.670;2023-04-20T06:16:23;101718.75;;;7.45;100.00
55916;BME280;41826;53.246;-6.670;2023-04-20T06:18:48;101697.66;;;7.48;100.00
55916;BME280;41826;53.246;-6.670;2023-04-20T06:21:14;101684.78;;;7.45;100.00
55916;BME280;41826;53.246;-6.670;2023-04-20T06:23:41;101655.03;;;7.47;100.00
55916;BME280;41826;53.246;-6.670;2023-04-20T06:26:09;101613.66;;;7.67;100.00
55916;BME280;41826;53.246;-6.670;2023-04-20T06:28:37;101565.03;;;7.64;100.00
55916;BME280;41826;53.246;-6.670;2023-04-20T06:31:04;101544.16;;;7.64;100.00
55916;BME280;41826;53.246;-6.670;2023-04-20T06:33:30;101530.69;;;7.83;100.00
55916;BME280;41826;53.246;-6.670;2023-04-20T06:35:57;101477.66;;;7.94;100.00
55916;BME280;41826;53.246;-6.670;2023-04-20T06:38:23;101443.16;;;7.89;100.00
55916;BME280;41826;53.246;-6.670;2023-04-20T06:40:52;101397.56;;;8.17;100.00
55916;BME280;41826;53.246;-6.670;2023-04-20T06:43:18;101323.44;;;8.29;100.00
55916;BME280;41826;53.246;-6.670;2023-04-20T06:45:43;101228.53;;;8.51;100.00
55916;BME280;41826;53.246;-6.670;2023-04-20T06:48:08;101177.53;;;8.21;100.00
55916;BME280;41826;53.246;-6.670;2023-04-20T06:50:34;101172.13;;;8.47;100.00
55916;BME280;41826;53.246;-6.670;2023-04-20T06:53:02;101046.84;;;8.76;100.00
55916;BME280;41826;53.246;-6.670;2023-04-20T06:55:28;100946.03;;;8.82;100.00
55916;BME280;41826;53.246;-6.670;2023-04-20T06:57:54;100911.19;;;9.02;100.00
55916;BME280;41826;53.246;-6.670;2023-04-20T07:00:19;100854.28;;;8.62;100.00
55916;BME280;41826;53.246;-6.670;2023-04-20T07:02:48;100843.44;;;9.19;100.00
55916;BME280;41826;53.246;-6.670;2023-04-20T07:05:16;100780.19;;;9.23;100.00
55916;BME280;41826;53.246;-6.670;2023-04-20T07:07:44;100768.63;;;9.26;100.00
55916;BME280;41826;53.246;-6.670;2023-04-20T07:10:11;100681.38;;;9.25;100.00
55916;BME280;41826;53.246;-6.670;2023-04-20T07:12:38;100645.81;;;9.32;100.00
55916;BME280;41826;53.246;-6.670;2023-04-20T07:15:05;100622.22;;;9.23;100.00
55916;BME280;41826;53.246;-6.670;2023-04-20T07:17:36;100580.94;;;9.93;100.00
55916;BME280;41826;53.246;-6.670;2023-04-20T07:20:02;100514.63;;;9.53;100.00
55916;BME280;41826;53.246;-6.670;2023-04-20T07:22:32;100444.91;;;9.80;100.00
55916;BME280;41826;53.246;-6.670;2023-04-20T07:24:59;100420.16;;;9.65;100.00
55916;BME280;41826;53.246;-6.670;2023-04-20T07:27:26;100379.63;;;9.49;100.00
55916;BME280;41826;53.246;-6.670;2023-04-20T07:29:52;100360.66;;;10.38;100.00
55916;BME280;41826;53.246;-6.670;2023-04-20T07:32:17;100245.44;;;9.91;100.00
55916;BME280;41826;53.246;-6.670;2023-04-20T07:34:43;100265.53;;;9.37;100.00
55916;BME280;41826;53.246;-6.670;2023-04-20T07:37:08;100262.13;;;10.44;100.00
55916;BME280;41826;53.246;-6.670;2023-04-20T07:39:36;100158.19;;;9.81;100.00
55916;BME280;41826;53.246;-6.670;2023-04-20T07:42:03;100223.94;;;10.06;100.00
55916;BME280;41826;53.246;-6.670;2023-04-20T07:44:28;100114.75;;;10.57;100.00
55916;BME280;41826;53.246;-6.670;2023-04-20T07:46:55;99986.13;;;10.57;100.00
55916;BME280;41826;53.246;-6.670;2023-04-20T07:49:22;99925.34;;;10.19;100.00
55916;BME280;41826;53.246;-6.670;2023-04-20T07:51:47;99869.34;;;10.36;100.00
55916;BME280;41826;53.246;-6.670;2023-04-20T07:54:13;99850.75;;;10.22;100.00
55916;BME280;41826;53.246;-6.670;2023-04-20T07:56:39;99839.81;;;10.59;100.00
55916;BME280;41826;53.246;-6.670;2023-04-20T07:59:05;99842.09;;;10.46;100.00
55916;BME280;41826;53.246;-6.670;2023-04-20T08:01:32;99830.78;;;10.37;100.00
55916;BME280;41826;53.246;-6.670;2023-04-20T08:03:59;99833.69;;;10.17;100.00
55916;BME280;41826;53.246;-6.670;2023-04-20T08:06:25;99842.94;;;10.46;100.00
55916;BME280;41826;53.246;-6.670;2023-04-20T08:08:51;99828.66;;;10.81;100.00
55916;BME280;41826;53.246;-6.670;2023-04-20T08:11:17;99841.41;;;11.01;100.00
55916;BME280;41826;53.246;-6.670;2023-04-20T08:13:43;99865.53;;;11.04;100.00
55916;BME280;41826;53.246;-6.670;2023-04-20T08:16:08;99874.59;;;10.69;100.00
55916;BME280;41826;53.246;-6.670;2023-04-20T08:18:34;99869.16;;;10.95;100.00
55916;BME280;41826;53.246;-6.670;2023-04-20T08:20:59;99885.41;;;11.07;100.00
55916;BME280;41826;53.246;-6.670;2023-04-20T08:23:25;99880.31;;;10.81;100.00
55916;BME280;41826;53.246;-6.670;2023-04-20T08:25:53;99890.19;;;10.87;100.00
55916;BME280;41826;53.246;-6.670;2023-04-20T08:28:20;99897.91;;;10.56;100.00
55916;BME280;41826;53.246;-6.670;2023-04-20T08:30:46;99876.03;;;11.13;100.00
55916;BME280;41826;53.246;-6.670;2023-04-20T08:33:11;99901.16;;;10.82;100.00
55916;BME280;41826;53.246;-6.670;2023-04-20T08:35:38;99907.03;;;11.25;100.00
55916;BME280;41826;53.246;-6.670;2023-04-20T08:38:05;99901.72;;;11.42;100.00
55916;BME280;41826;53.246;-6.670;2023-04-20T08:40:31;99900.81;;;11.10;100.00
55916;BME280;41826;53.246;-6.670;2023-04-20T08:42:58;99899.31;;;11.24;100.00
55916;BME280;41826;53.246;-6.670;2023-04-20T08:45:25;99940.38;;;11.25;100.00
55916;BME280;41826;53.246;-6.670;2023-04-20T08:47:52;100091.94;;;11.33;100.00
55916;BME280;41826;53.246;-6.670;2023-04-20T08:50:19;100217.41;;;11.31;100.00
55916;BME280;41826;53.246;-6.670;2023-04-20T08:52:45;100290.31;;;11.71;100.00
55916;BME280;41826;53.246;-6.670;2023-04-20T08:55:16;100351.09;;;11.25;100.00
55916;BME280;41826;53.246;-6.670;2023-04-20T08:57:47;100363.69;;;11.48;100.00
55916;BME280;41826;53.246;-6.670;2023-04-20T09:00:16;100368.00;;;11.57;100.00
55916;BME280;41826;53.246;-6.670;2023-04-20T09:02:55;100418.59;;;11.59;100.00
55916;BME280;41826;53.246;-6.670;2023-04-20T09:05:27;100456.03;;;11.53;100.00
55916;BME280;41826;53.246;-6.670;2023-04-20T09:07:59;100636.06;;;11.67;100.00
55916;BME280;41826;53.246;-6.670;2023-04-20T09:10:26;100696.69;;;11.83;100.00
55916;BME280;41826;53.246;-6.670;2023-04-20T09:13:02;100778.91;;;11.67;100.00
55916;BME280;41826;53.246;-6.670;2023-04-20T09:15:29;100969.13;;;11.86;100.00
55916;BME280;41826;53.246;-6.670;2023-04-20T09:17:55;100975.88;;;11.61;100.00
55916;BME280;41826;53.246;-6.670;2023-04-20T09:20:31;101090.47;;;11.34;100.00
55916;BME280;41826;53.246;-6.670;2023-04-20T09:23:13;101110.50;;;11.84;100.00
55916;BME280;41826;53.246;-6.670;2023-04-20T09:25:39;101127.94;;;11.95;100.00
55916;BME280;41826;53.246;-6.670;2023-04-20T09:28:08;101122.44;;;11.30;100.00
55916;BME280;41826;53.246;-6.670;2023-04-20T09:33:09;101081.56;;;11.74;100.00
55916;BME280;41826;53.246;-6.670;2023-04-20T09:35:46;101100.97;;;11.44;100.00
55916;BME280;41826;53.246;-6.670;2023-04-20T09:38:15;101114.38;;;11.80;100.00
55916;BME280;41826;53.246;-6.670;2023-04-20T09:40:42;101110.19;;;12.16;100.00
55916;BME280;41826;53.246;-6.670;2023-04-20T09:43:18;101189.44;;;11.93;100.00
55916;BME280;41826;53.246;-6.670;2023-04-20T09:45:44;101155.66;;;11.60;100.00
55916;BME280;41826;53.246;-6.670;2023-04-20T09:48:10;101163.94;;;11.84;100.00
55916;BME280;41826;53.246;-6.670;2023-04-20T09:50:37;101157.28;;;12.00;100.00
55916;BME280;41826;53.246;-6.670;2023-04-20T09:53:04;101164.91;;;11.74;100.00
55916;BME280;41826;53.246;-6.670;2023-04-20T09:55:32;101165.28;;;12.18;100.00
55916;BME280;41826;53.246;-6.670;2023-04-20T09:58:01;101145.41;;;12.05;100.00
55916;BME280;41826;53.246;-6.670;2023-04-20T10:00:27;101156.94;;;12.32;100.00
55916;BME280;41826;53.246;-6.670;2023-04-20T10:02:53;101161.03;;;11.97;100.00
55916;BME280;41826;53.246;-6.670;2023-04-20T10:05:18;101194.41;;;12.06;100.00
55916;BME280;41826;53.246;-6.670;2023-04-20T10:07:45;101222.09;;;11.81;100.00
55916;BME280;41826;53.246;-6.670;2023-04-20T10:10:13;101240.13;;;12.05;100.00
55916;BME280;41826;53.246;-6.670;2023-04-20T10:15:15;101244.69;;;12.13;100.00
55916;BME280;41826;53.246;-6.670;2023-04-20T10:17:41;101269.16;;;12.33;100.00
55916;BME280;41826;53.246;-6.670;2023-04-20T10:20:27;101336.66;;;12.14;99.73
55916;BME280;41826;53.246;-6.670;2023-04-20T10:23:08;101335.97;;;12.32;100.00
55916;BME280;41826;53.246;-6.670;2023-04-20T10:25:36;101353.81;;;11.99;99.05
55916;BME280;41826;53.246;-6.670;2023-04-20T10:28:03;101343.44;;;12.27;100.00
55916;BME280;41826;53.246;-6.670;2023-04-20T10:30:32;101346.59;;;11.91;100.00
55916;BME280;41826;53.246;-6.670;2023-04-20T10:33:10;101321.00;;;12.03;100.00
55916;BME280;41826;53.246;-6.670;2023-04-20T10:38:11;101352.72;;;12.11;100.00
55916;BME280;41826;53.246;-6.670;2023-04-20T10:40:38;101355.66;;;12.18;100.00
55916;BME280;41826;53.246;-6.670;2023-04-20T10:43:04;101345.53;;;12.13;100.00
55916;BME280;41826;53.246;-6.670;2023-04-20T10:45:36;101323.75;;;11.92;100.00
55916;BME280;41826;53.246;-6.670;2023-04-20T10:48:09;101309.66;;;12.03;100.00
55916;BME280;41826;53.246;-6.670;2023-04-20T10:50:35;101326.66;;;12.47;100.00
55916;BME280;41826;53.246;-6.670;2023-04-20T10:53:02;101311.84;;;12.46;100.00
55916;BME280;41826;53.246;-6.670;2023-04-20T10:55:31;101319.34;;;12.41;100.00
55916;BME280;41826;53.246;-6.670;2023-04-20T10:58:03;101371.41;;;11.99;100.00
55916;BME280;41826;53.246;-6.670;2023-04-20T11:00:28;101387.22;;;12.08;100.00
55916;BME280;41826;53.246;-6.670;2023-04-20T11:02:56;101366.16;;;12.08;100.00
55916;BME280;41826;53.246;-6.670;2023-04-20T11:05:23;101353.00;;;12.08;100.00
55916;BME280;41826;53.246;-6.670;2023-04-20T11:07:54;101354.81;;;12.27;100.00
55916;BME280;41826;53.246;-6.670;2023-04-20T11:10:38;101365.44;;;11.87;100.00
55916;BME280;41826;53.246;-6.670;2023-04-20T11:13:04;101339.28;;;12.24;100.00
55916;BME280;41826;53.246;-6.670;2023-04-20T11:15:31;101363.81;;;12.15;100.00
55916;BME280;41826;53.246;-6.670;2023-04-20T11:18:07;101365.91;;;12.21;100.00
55916;BME280;41826;53.246;-6.670;2023-04-20T11:20:33;101341.78;;;12.55;100.00
55916;BME280;41826;53.246;-6.670;2023-04-20T11:22:59;101351.50;;;12.16;100.00
55916;BME280;41826;53.246;-6.670;2023-04-20T11:25:27;101346.50;;;12.32;100.00
55916;BME280;41826;53.246;-6.670;2023-04-20T11:28:04;101331.53;;;12.03;100.00
55916;BME280;41826;53.246;-6.670;2023-04-20T11:30:42;101300.78;;;12.13;100.00
55916;BME280;41826;53.246;-6.670;2023-04-20T11:33:08;101319.47;;;12.59;100.00
55916;BME280;41826;53.246;-6.670;2023-04-20T11:35:36;101344.28;;;12.47;100.00
55916;BME280;41826;53.246;-6.670;2023-04-20T11:38:03;101346.22;;;12.16;100.00
55916;BME280;41826;53.246;-6.670;2023-04-20T11:40:28;101346.06;;;12.07;100.00
55916;BME280;41826;53.246;-6.670;2023-04-20T11:42:56;101351.47;;;12.35;100.00
55916;BME280;41826;53.246;-6.670;2023-04-20T11:45:22;101329.28;;;12.67;100.00
55916;BME280;41826;53.246;-6.670;2023-04-20T11:47:48;101334.16;;;12.62;100.00
55916;BME280;41826;53.246;-6.670;2023-04-20T11:50:16;101358.13;;;12.58;100.00
55916;BME280;41826;53.246;-6.670;2023-04-20T11:52:42;101334.66;;;12.75;100.00
55916;BME280;41826;53.246;-6.670;2023-04-20T11:55:08;101325.13;;;12.74;100.00
55916;BME280;41826;53.246;-6.670;2023-04-20T11:57:33;101268.06;;;12.92;100.00
55916;BME280;41826;53.246;-6.670;2023-04-20T11:59:59;101217.53;;;12.12;100.00
55916;BME280;41826;53.246;-6.670;2023-04-20T12:02:25;101275.00;;;12.36;100.00
55916;BME280;41826;53.246;-6.670;2023-04-20T12:04:51;101293.63;;;12.82;100.00
55916;BME280;41826;53.246;-6.670;2023-04-20T12:07:16;101247.63;;;12.67;100.00
55916;BME280;41826;53.246;-6.670;2023-04-20T12:09:44;101221.41;;;12.65;100.00
55916;BME280;41826;53.246;-6.670;2023-04-20T12:12:10;101237.81;;;12.49;100.00
55916;BME280;41826;53.246;-6.670;2023-04-20T12:14:37;101227.03;;;12.43;100.00
55916;BME280;41826;53.246;-6.670;2023-04-20T12:17:04;101193.78;;;12.79;100.00
55916;BME280;41826;53.246;-6.670;2023-04-20T12:19:30;101187.28;;;12.73;100.00
55916;BME280;41826;53.246;-6.670;2023-04-20T12:21:55;101203.88;;;12.56;100.00
55916;BME280;41826;53.246;-6.670;2023-04-20T12:24:23;101169.38;;;12.49;100.00
55916;BME280;41826;53.246;-6.670;2023-04-20T12:26:48;101140.16;;;12.33;100.00
55916;BME280;41826;53.246;-6.670;2023-04-20T12:29:14;101141.78;;;12.53;100.00
55916;BME280;41826;53.246;-6.670;2023-04-20T12:31:41;101152.88;;;12.75;100.00
55916;BME280;41826;53.246;-6.670;2023-04-20T12:34:07;101180.78;;;12.68;100.00
55916;BME280;41826;53.246;-6.670;2023-04-20T12:36:32;101191.16;;;12.79;100.00
55916;BME280;41826;53.246;-6.670;2023-04-20T12:38:59;101162.59;;;12.37;100.00
55916;BME280;41826;53.246;-6.670;2023-04-20T12:41:26;101150.91;;;12.59;100.00
55916;BME280;41826;53.246;-6.670;2023-04-20T12:43:51;101171.78;;;12.61;100.00